Scroll down
FLIGHT INFORMATION
Air Atlanta Icelandic

ABD666

At Arrival Gate

RJAA
 ZBAA
DATE: 2021-09-16
GATE: G26
GATE DEPARTURE: 12:31
TAKEOFF: 12:47
DATE: 2021-09-16
GATE:  -
LANDING: 16:08
GATE ARRIVAL: 16:15
FLIGHT DATA
Crew: 
Speed: 
954 kph
Altitude: 
42,023 ft
Stage Length: 
2,134.0 km
Block Time: 
3.6 hrs
Flight Time: 
3.4 hrs
Fuel Used: 
28,760 kg
Cleared Route: RJAA ENPAR NIXIS TEPEX BIDIK MADUL SUGNO SAPRA BULGA KPO ELAPI CUN BIGOB BASEM ENSAL GUKDO KAKSO KALMA SEL GOGET NOPIK BINIL ANSIM DANTI GONAV RILRO AGAVO IKEKA SEBLI WEH FZ TEKAM HCH DOVIV VIDEL TEMAD DUMAP CG LADIX VYK AA441 ZBAA
TRACK DATA
50,000 ft 1,000 kts
AIRCRAFT INFO AND CUMULATIVE STATS
Aircraft Type: 
B744
Registration: 
SELCAL: 
MSN/LN: 
32868 / 1325
Operator: 
Total Flights: 
4
Total Block Time: 
16.4 hrs
Total Flight Time: 
15.6 hrs
Total Fuel Used: 
143,426 kg
DATALINK LOG | Newest first | Current as of: 2022-09-30 00:34:21
LABEL SEQUENCE CONTENT Dn/Up
QD203816:15 23.7▼ Dn
QC133216:08▼ Dn
2U2716ZBAA 161500Z VRB01MPS CAVOK 18/17 Q1016 NOSIG▲ Up
2S3257ZBAA▼ Dn
QB532412:47▼ Dn
QA370812:31 87.5▼ Dn
2U2548RJAA 161200Z 03007KT 9999 FEW020 SCT028 BKN080 21/17 Q1018 NOSIG▲ Up
2S3002RJAA▼ Dn
A31245CLEARED TO ZBAA VIA TETRA8 ENPAR Y16 SAPRA G585 SEL G597 GONAV Y644 AGAVO A591 IKEKA W4 HCH W200 DOVIV W55 CG W34 VYK AA441. SQUAWK 7255.▲ Up
B31245RJAA ZBAA ABD666 TFAAK ▼ Dn
Q01043[LINK ACK]▲ Up
Q01043[LINK TEST]▼ Dn


AIRCRAFT HISTORY
FLIGHT DATE FLIGHT NO. ORIGIN DESTINATION CLEARED ROUTE BLOCK TIME FLIGHT TIME FUEL USED PILOT
2021-09-16ABD666RJAA ZBAA RJAA ENPAR NIXIS TEPEX BIDIK MADUL SUGNO SAPRA BULGA KPO ELAPI CUN BIGOB BASEM ENSAL GUKDO KAKSO KALMA SEL GOGET NOPIK BINIL ANSIM DANTI GONAV RILRO AGAVO IKEKA SEBLI WEH FZ TEKAM HCH DOVIV VIDEL TEMAD DUMAP CG LADIX VYK AA441 ZBAA3.6 hrs3.4 hrs63,405 lbEphedrin
2021-09-13ABD666KLAX RJAA KLAX MCKEY LIBBO BRINY ALCOA DACEM 40N30 41N40 39N50 38N60 36N70 35E80 34E70 34E60 35E50 SEALS LAPIL BITEK POROT OLDIV LESPO SUPOK RJAA11.3 hrs11.1 hrs223,924 lbEphedrin
2020-10-29ABD1029KPHX KLAX KPHX MESSI ESTWD KLAX1.1 hrs0.9 hrs22,282 lbKevin Hall
2018-08-26ABD666KPHX KPHX 0.3 hrs0.2 hrs6,589 lb-SUSPENDED-